sensor_id;sensor_type;location;lat;lon;timestamp;P1;durP1;ratioP1;P2;durP2;ratioP2
7753;SDS011;3921;42.266;23.122;2022-11-14T00:01:59;35.93;;;20.83;;
7753;SDS011;3921;42.266;23.122;2022-11-14T00:04:27;35.50;;;20.07;;
7753;SDS011;3921;42.266;23.122;2022-11-14T00:06:56;34.53;;;20.67;;
7753;SDS011;3921;42.266;23.122;2022-11-14T00:09:24;33.90;;;19.87;;
7753;SDS011;3921;42.266;23.122;2022-11-14T00:12:00;39.33;;;20.77;;
7753;SDS011;3921;42.266;23.122;2022-11-14T00:14:31;35.23;;;20.90;;
7753;SDS011;3921;42.266;23.122;2022-11-14T00:16:58;34.93;;;22.30;;
7753;SDS011;3921;42.266;23.122;2022-11-14T00:19:25;39.57;;;22.83;;
7753;SDS011;3921;42.266;23.122;2022-11-14T00:21:52;40.80;;;22.60;;
7753;SDS011;3921;42.266;23.122;2022-11-14T00:24:24;40.87;;;21.90;;
7753;SDS011;3921;42.266;23.122;2022-11-14T00:26:51;45.47;;;24.60;;
7753;SDS011;3921;42.266;23.122;2022-11-14T00:29:23;43.23;;;24.97;;
7753;SDS011;3921;42.266;23.122;2022-11-14T00:31:50;48.33;;;25.40;;
7753;SDS011;3921;42.266;23.122;2022-11-14T00:34:19;43.07;;;24.17;;
7753;SDS011;3921;42.266;23.122;2022-11-14T00:36:46;44.37;;;24.37;;
7753;SDS011;3921;42.266;23.122;2022-11-14T00:39:18;40.73;;;23.33;;
7753;SDS011;3921;42.266;23.122;2022-11-14T00:41:49;43.07;;;23.93;;
7753;SDS011;3921;42.266;23.122;2022-11-14T00:44:20;40.60;;;22.13;;
7753;SDS011;3921;42.266;23.122;2022-11-14T00:46:51;41.20;;;22.70;;
7753;SDS011;3921;42.266;23.122;2022-11-14T00:49:21;38.27;;;20.80;;
7753;SDS011;3921;42.266;23.122;2022-11-14T00:51:49;38.17;;;21.13;;
7753;SDS011;3921;42.266;23.122;2022-11-14T00:54:16;36.33;;;21.37;;
7753;SDS011;3921;42.266;23.122;2022-11-14T00:56:51;33.03;;;19.83;;
7753;SDS011;3921;42.266;23.122;2022-11-14T00:59:18;37.17;;;19.43;;
7753;SDS011;3921;42.266;23.122;2022-11-14T01:01:45;36.33;;;19.53;;
7753;SDS011;3921;42.266;23.122;2022-11-14T01:04:17;35.23;;;20.20;;
7753;SDS011;3921;42.266;23.122;2022-11-14T01:06:44;35.40;;;19.53;;
7753;SDS011;3921;42.266;23.122;2022-11-14T01:09:14;34.90;;;19.90;;
7753;SDS011;3921;42.266;23.122;2022-11-14T01:11:42;33.60;;;19.47;;
7753;SDS011;3921;42.266;23.122;2022-11-14T01:14:09;38.07;;;21.37;;
7753;SDS011;3921;42.266;23.122;2022-11-14T01:16:37;36.73;;;20.87;;
7753;SDS011;3921;42.266;23.122;2022-11-14T01:19:07;35.77;;;21.53;;
7753;SDS011;3921;42.266;23.122;2022-11-14T01:21:41;34.90;;;19.67;;
7753;SDS011;3921;42.266;23.122;2022-11-14T01:24:13;36.27;;;20.47;;
7753;SDS011;3921;42.266;23.122;2022-11-14T01:26:40;36.37;;;20.90;;
7753;SDS011;3921;42.266;23.122;2022-11-14T01:29:13;33.37;;;19.10;;
7753;SDS011;3921;42.266;23.122;2022-11-14T01:31:40;35.53;;;20.67;;
7753;SDS011;3921;42.266;23.122;2022-11-14T01:34:14;37.80;;;22.03;;
7753;SDS011;3921;42.266;23.122;2022-11-14T01:36:43;36.37;;;21.73;;
7753;SDS011;3921;42.266;23.122;2022-11-14T01:39:19;34.13;;;18.70;;
7753;SDS011;3921;42.266;23.122;2022-11-14T01:41:53;35.63;;;19.87;;
7753;SDS011;3921;42.266;23.122;2022-11-14T01:44:42;34.57;;;20.17;;
7753;SDS011;3921;42.266;23.122;2022-11-14T01:47:17;34.13;;;19.60;;
7753;SDS011;3921;42.266;23.122;2022-11-14T01:49:47;36.83;;;20.33;;
7753;SDS011;3921;42.266;23.122;2022-11-14T01:52:20;33.73;;;19.57;;
7753;SDS011;3921;42.266;23.122;2022-11-14T01:54:50;33.20;;;20.10;;
7753;SDS011;3921;42.266;23.122;2022-11-14T01:57:19;30.40;;;19.03;;
7753;SDS011;3921;42.266;23.122;2022-11-14T01:59:58;32.67;;;19.43;;
7753;SDS011;3921;42.266;23.122;2022-11-14T02:02:28;33.00;;;18.73;;
7753;SDS011;3921;42.266;23.122;2022-11-14T02:05:00;32.40;;;19.13;;
7753;SDS011;3921;42.266;23.122;2022-11-14T02:07:33;37.67;;;20.27;;
7753;SDS011;3921;42.266;23.122;2022-11-14T02:10:06;34.90;;;19.47;;
7753;SDS011;3921;42.266;23.122;2022-11-14T02:12:35;31.80;;;18.67;;
7753;SDS011;3921;42.266;23.122;2022-11-14T02:15:03;33.57;;;18.73;;
7753;SDS011;3921;42.266;23.122;2022-11-14T02:17:31;30.03;;;17.40;;
7753;SDS011;3921;42.266;23.122;2022-11-14T02:20:19;29.40;;;17.87;;
7753;SDS011;3921;42.266;23.122;2022-11-14T02:22:47;32.87;;;18.40;;
7753;SDS011;3921;42.266;23.122;2022-11-14T02:25:20;32.43;;;18.63;;
7753;SDS011;3921;42.266;23.122;2022-11-14T02:27:50;33.03;;;18.60;;
7753;SDS011;3921;42.266;23.122;2022-11-14T02:30:18;31.53;;;17.50;;
7753;SDS011;3921;42.266;23.122;2022-11-14T02:32:47;31.17;;;18.40;;
7753;SDS011;3921;42.266;23.122;2022-11-14T02:35:13;33.07;;;18.67;;
7753;SDS011;3921;42.266;23.122;2022-11-14T02:37:54;28.77;;;18.40;;
7753;SDS011;3921;42.266;23.122;2022-11-14T02:43:04;29.43;;;18.07;;
7753;SDS011;3921;42.266;23.122;2022-11-14T02:45:31;31.40;;;18.03;;
7753;SDS011;3921;42.266;23.122;2022-11-14T02:47:59;33.27;;;19.33;;
7753;SDS011;3921;42.266;23.122;2022-11-14T02:50:29;34.30;;;18.30;;
7753;SDS011;3921;42.266;23.122;2022-11-14T02:52:59;34.17;;;19.30;;
7753;SDS011;3921;42.266;23.122;2022-11-14T02:55:30;33.43;;;18.83;;
7753;SDS011;3921;42.266;23.122;2022-11-14T02:57:57;33.27;;;18.90;;
7753;SDS011;3921;42.266;23.122;2022-11-14T03:00:24;32.10;;;17.87;;
7753;SDS011;3921;42.266;23.122;2022-11-14T03:02:54;34.23;;;18.17;;
7753;SDS011;3921;42.266;23.122;2022-11-14T03:05:21;31.77;;;18.30;;
7753;SDS011;3921;42.266;23.122;2022-11-14T03:07:54;28.97;;;17.67;;
7753;SDS011;3921;42.266;23.122;2022-11-14T03:10:26;33.03;;;17.63;;
7753;SDS011;3921;42.266;23.122;2022-11-14T03:13:04;28.83;;;16.17;;
7753;SDS011;3921;42.266;23.122;2022-11-14T03:15:35;30.37;;;17.30;;
7753;SDS011;3921;42.266;23.122;2022-11-14T03:18:07;30.77;;;16.60;;
7753;SDS011;3921;42.266;23.122;2022-11-14T03:20:37;29.27;;;15.63;;
7753;SDS011;3921;42.266;23.122;2022-11-14T03:23:09;27.27;;;16.00;;
7753;SDS011;3921;42.266;23.122;2022-11-14T03:25:38;31.50;;;16.33;;
7753;SDS011;3921;42.266;23.122;2022-11-14T03:28:05;30.67;;;16.50;;
7753;SDS011;3921;42.266;23.122;2022-11-14T03:30:44;32.77;;;16.93;;
7753;SDS011;3921;42.266;23.122;2022-11-14T03:33:14;31.83;;;17.53;;
7753;SDS011;3921;42.266;23.122;2022-11-14T03:35:41;33.43;;;17.77;;
7753;SDS011;3921;42.266;23.122;2022-11-14T03:38:10;30.67;;;17.07;;
7753;SDS011;3921;42.266;23.122;2022-11-14T03:40:39;30.97;;;17.63;;
7753;SDS011;3921;42.266;23.122;2022-11-14T03:43:06;31.00;;;18.23;;
7753;SDS011;3921;42.266;23.122;2022-11-14T03:45:34;34.90;;;18.70;;
7753;SDS011;3921;42.266;23.122;2022-11-14T03:48:05;32.07;;;17.83;;
7753;SDS011;3921;42.266;23.122;2022-11-14T03:50:34;29.00;;;18.07;;
7753;SDS011;3921;42.266;23.122;2022-11-14T03:53:04;33.37;;;19.13;;
7753;SDS011;3921;42.266;23.122;2022-11-14T03:55:31;31.87;;;18.67;;
7753;SDS011;3921;42.266;23.122;2022-11-14T03:58:05;30.37;;;18.87;;
7753;SDS011;3921;42.266;23.122;2022-11-14T04:00:34;31.80;;;18.57;;
7753;SDS011;3921;42.266;23.122;2022-11-14T04:03:03;33.03;;;18.70;;
7753;SDS011;3921;42.266;23.122;2022-11-14T04:05:32;33.07;;;18.50;;
7753;SDS011;3921;42.266;23.122;2022-11-14T04:08:03;31.03;;;18.77;;
7753;SDS011;3921;42.266;23.122;2022-11-14T04:10:30;35.83;;;18.97;;
7753;SDS011;3921;42.266;23.122;2022-11-14T04:13:00;35.23;;;18.63;;
7753;SDS011;3921;42.266;23.122;2022-11-14T04:15:29;31.67;;;18.40;;
7753;SDS011;3921;42.266;23.122;2022-11-14T04:17:59;34.70;;;18.70;;
7753;SDS011;3921;42.266;23.122;2022-11-14T04:20:29;32.17;;;18.83;;
7753;SDS011;3921;42.266;23.122;2022-11-14T04:22:58;34.93;;;19.33;;
7753;SDS011;3921;42.266;23.122;2022-11-14T04:25:29;38.53;;;21.07;;
7753;SDS011;3921;42.266;23.122;2022-11-14T04:28:02;32.97;;;19.37;;
7753;SDS011;3921;42.266;23.122;2022-11-14T04:30:36;38.33;;;21.07;;
7753;SDS011;3921;42.266;23.122;2022-11-14T04:33:03;36.03;;;19.80;;
7753;SDS011;3921;42.266;23.122;2022-11-14T04:35:34;33.60;;;19.80;;
7753;SDS011;3921;42.266;23.122;2022-11-14T04:38:04;37.50;;;20.03;;
7753;SDS011;3921;42.266;23.122;2022-11-14T04:40:35;36.27;;;20.37;;
7753;SDS011;3921;42.266;23.122;2022-11-14T04:43:02;34.37;;;20.77;;
7753;SDS011;3921;42.266;23.122;2022-11-14T04:45:33;39.90;;;21.10;;
7753;SDS011;3921;42.266;23.122;2022-11-14T04:48:20;35.93;;;20.63;;
7753;SDS011;3921;42.266;23.122;2022-11-14T04:50:49;40.13;;;21.27;;
7753;SDS011;3921;42.266;23.122;2022-11-14T04:53:16;35.70;;;20.10;;
7753;SDS011;3921;42.266;23.122;2022-11-14T04:55:45;36.27;;;20.27;;
7753;SDS011;3921;42.266;23.122;2022-11-14T04:58:17;37.93;;;20.23;;
7753;SDS011;3921;42.266;23.122;2022-11-14T05:00:45;34.33;;;20.47;;
7753;SDS011;3921;42.266;23.122;2022-11-14T05:03:14;40.20;;;22.43;;
7753;SDS011;3921;42.266;23.122;2022-11-14T05:05:43;41.33;;;22.50;;
7753;SDS011;3921;42.266;23.122;2022-11-14T05:08:10;41.60;;;23.07;;
7753;SDS011;3921;42.266;23.122;2022-11-14T05:10:41;37.90;;;22.23;;
7753;SDS011;3921;42.266;23.122;2022-11-14T05:13:09;41.73;;;22.43;;
7753;SDS011;3921;42.266;23.122;2022-11-14T05:15:36;40.77;;;22.57;;
7753;SDS011;3921;42.266;23.122;2022-11-14T05:18:05;38.73;;;22.20;;
7753;SDS011;3921;42.266;23.122;2022-11-14T05:20:32;42.03;;;22.30;;
7753;SDS011;3921;42.266;23.122;2022-11-14T05:23:00;43.77;;;22.87;;
7753;SDS011;3921;42.266;23.122;2022-11-14T05:25:29;38.27;;;22.33;;
7753;SDS011;3921;42.266;23.122;2022-11-14T05:28:01;38.67;;;22.40;;
7753;SDS011;3921;42.266;23.122;2022-11-14T05:30:29;38.33;;;21.40;;
7753;SDS011;3921;42.266;23.122;2022-11-14T05:32:57;43.03;;;22.37;;
7753;SDS011;3921;42.266;23.122;2022-11-14T05:35:34;41.27;;;23.43;;
7753;SDS011;3921;42.266;23.122;2022-11-14T05:38:01;38.93;;;23.10;;
7753;SDS011;3921;42.266;23.122;2022-11-14T05:40:28;39.87;;;21.90;;
7753;SDS011;3921;42.266;23.122;2022-11-14T05:42:55;40.77;;;21.43;;
7753;SDS011;3921;42.266;23.122;2022-11-14T05:45:24;41.27;;;21.33;;
7753;SDS011;3921;42.266;23.122;2022-11-14T05:47:51;48.23;;;23.83;;
7753;SDS011;3921;42.266;23.122;2022-11-14T05:50:19;40.30;;;22.63;;
7753;SDS011;3921;42.266;23.122;2022-11-14T05:52:49;41.40;;;22.17;;
7753;SDS011;3921;42.266;23.122;2022-11-14T05:55:16;129.50;;;69.77;;
7753;SDS011;3921;42.266;23.122;2022-11-14T05:57:56;41.03;;;23.90;;
7753;SDS011;3921;42.266;23.122;2022-11-14T06:00:23;43.57;;;23.43;;
7753;SDS011;3921;42.266;23.122;2022-11-14T06:02:54;37.07;;;21.13;;
7753;SDS011;3921;42.266;23.122;2022-11-14T06:05:23;39.57;;;20.67;;
7753;SDS011;3921;42.266;23.122;2022-11-14T06:10:51;40.67;;;21.40;;
7753;SDS011;3921;42.266;23.122;2022-11-14T06:13:17;40.03;;;21.77;;
7753;SDS011;3921;42.266;23.122;2022-11-14T06:15:45;43.77;;;22.80;;
7753;SDS011;3921;42.266;23.122;2022-11-14T06:18:11;44.23;;;23.57;;
7753;SDS011;3921;42.266;23.122;2022-11-14T06:20:40;52.97;;;26.80;;
7753;SDS011;3921;42.266;23.122;2022-11-14T06:23:08;46.47;;;25.00;;
7753;SDS011;3921;42.266;23.122;2022-11-14T06:25:36;45.60;;;25.23;;
7753;SDS011;3921;42.266;23.122;2022-11-14T06:28:03;51.67;;;26.43;;
7753;SDS011;3921;42.266;23.122;2022-11-14T06:30:33;43.83;;;24.40;;
7753;SDS011;3921;42.266;23.122;2022-11-14T06:33:00;46.10;;;25.20;;
7753;SDS011;3921;42.266;23.122;2022-11-14T06:35:27;45.00;;;24.67;;
7753;SDS011;3921;42.266;23.122;2022-11-14T06:37:58;41.83;;;23.83;;
7753;SDS011;3921;42.266;23.122;2022-11-14T06:40:27;44.23;;;24.60;;
7753;SDS011;3921;42.266;23.122;2022-11-14T06:42:54;41.37;;;24.70;;
7753;SDS011;3921;42.266;23.122;2022-11-14T06:45:21;41.53;;;23.53;;
7753;SDS011;3921;42.266;23.122;2022-11-14T06:47:48;40.30;;;23.40;;
7753;SDS011;3921;42.266;23.122;2022-11-14T06:50:15;43.20;;;24.33;;
7753;SDS011;3921;42.266;23.122;2022-11-14T06:52:42;41.20;;;24.60;;
7753;SDS011;3921;42.266;23.122;2022-11-14T06:55:10;39.07;;;21.07;;
7753;SDS011;3921;42.266;23.122;2022-11-14T06:57:38;35.20;;;20.43;;
7753;SDS011;3921;42.266;23.122;2022-11-14T07:00:06;36.87;;;21.87;;
7753;SDS011;3921;42.266;23.122;2022-11-14T07:02:34;35.80;;;20.97;;
7753;SDS011;3921;42.266;23.122;2022-11-14T07:05:01;41.07;;;22.50;;
7753;SDS011;3921;42.266;23.122;2022-11-14T07:07:28;38.30;;;21.97;;
7753;SDS011;3921;42.266;23.122;2022-11-14T07:09:57;41.43;;;22.80;;
7753;SDS011;3921;42.266;23.122;2022-11-14T07:12:24;34.77;;;21.43;;
7753;SDS011;3921;42.266;23.122;2022-11-14T07:14:52;36.07;;;20.83;;
7753;SDS011;3921;42.266;23.122;2022-11-14T07:17:19;33.40;;;21.47;;
7753;SDS011;3921;42.266;23.122;2022-11-14T07:19:46;39.13;;;21.63;;
7753;SDS011;3921;42.266;23.122;2022-11-14T07:22:15;39.77;;;21.63;;
7753;SDS011;3921;42.266;23.122;2022-11-14T07:24:42;38.97;;;22.47;;
7753;SDS011;3921;42.266;23.122;2022-11-14T07:27:10;40.83;;;22.70;;
7753;SDS011;3921;42.266;23.122;2022-11-14T07:29:39;41.67;;;23.30;;
7753;SDS011;3921;42.266;23.122;2022-11-14T07:32:11;42.80;;;22.83;;
7753;SDS011;3921;42.266;23.122;2022-11-14T07:34:39;43.37;;;23.47;;
7753;SDS011;3921;42.266;23.122;2022-11-14T07:37:06;40.37;;;22.47;;
7753;SDS011;3921;42.266;23.122;2022-11-14T07:39:34;40.37;;;23.20;;
7753;SDS011;3921;42.266;23.122;2022-11-14T07:42:01;40.17;;;22.17;;
7753;SDS011;3921;42.266;23.122;2022-11-14T07:44:28;42.60;;;22.77;;
7753;SDS011;3921;42.266;23.122;2022-11-14T07:46:55;43.50;;;22.53;;
7753;SDS011;3921;42.266;23.122;2022-11-14T07:49:24;38.77;;;22.20;;
7753;SDS011;3921;42.266;23.122;2022-11-14T07:51:51;36.30;;;22.07;;
7753;SDS011;3921;42.266;23.122;2022-11-14T07:54:18;36.97;;;20.87;;
7753;SDS011;3921;42.266;23.122;2022-11-14T07:56:52;36.23;;;20.70;;
7753;SDS011;3921;42.266;23.122;2022-11-14T07:59:19;36.97;;;20.93;;
7753;SDS011;3921;42.266;23.122;2022-11-14T08:01:51;38.03;;;22.07;;
7753;SDS011;3921;42.266;23.122;2022-11-14T08:04:18;39.57;;;22.07;;
7753;SDS011;3921;42.266;23.122;2022-11-14T08:06:47;37.80;;;22.77;;
7753;SDS011;3921;42.266;23.122;2022-11-14T08:09:14;42.30;;;22.90;;
7753;SDS011;3921;42.266;23.122;2022-11-14T08:11:41;37.33;;;20.70;;
7753;SDS011;3921;42.266;23.122;2022-11-14T08:14:25;37.70;;;21.30;;
7753;SDS011;3921;42.266;23.122;2022-11-14T08:16:52;35.43;;;21.67;;
7753;SDS011;3921;42.266;23.122;2022-11-14T08:19:19;38.30;;;22.40;;
7753;SDS011;3921;42.266;23.122;2022-11-14T08:21:52;36.10;;;22.13;;
7753;SDS011;3921;42.266;23.122;2022-11-14T08:24:26;38.80;;;21.63;;
7753;SDS011;3921;42.266;23.122;2022-11-14T08:26:55;38.03;;;20.97;;
7753;SDS011;3921;42.266;23.122;2022-11-14T08:29:22;35.70;;;21.37;;
7753;SDS011;3921;42.266;23.122;2022-11-14T08:31:49;32.77;;;20.03;;
7753;SDS011;3921;42.266;23.122;2022-11-14T08:34:20;31.30;;;19.50;;
7753;SDS011;3921;42.266;23.122;2022-11-14T08:36:49;32.17;;;19.20;;
7753;SDS011;3921;42.266;23.122;2022-11-14T08:39:17;28.93;;;19.13;;
7753;SDS011;3921;42.266;23.122;2022-11-14T08:41:45;34.83;;;20.70;;
7753;SDS011;3921;42.266;23.122;2022-11-14T08:44:12;33.53;;;19.77;;
7753;SDS011;3921;42.266;23.122;2022-11-14T08:46:39;33.93;;;19.60;;
7753;SDS011;3921;42.266;23.122;2022-11-14T08:49:12;33.17;;;18.63;;
7753;SDS011;3921;42.266;23.122;2022-11-14T08:51:47;28.90;;;18.13;;
7753;SDS011;3921;42.266;23.122;2022-11-14T08:54:14;27.93;;;17.70;;
7753;SDS011;3921;42.266;23.122;2022-11-14T08:56:58;27.97;;;17.03;;
7753;SDS011;3921;42.266;23.122;2022-11-14T08:59:27;28.57;;;16.87;;
7753;SDS011;3921;42.266;23.122;2022-11-14T09:01:57;27.27;;;17.30;;
7753;SDS011;3921;42.266;23.122;2022-11-14T09:04:24;30.43;;;18.20;;
7753;SDS011;3921;42.266;23.122;2022-11-14T09:06:51;30.17;;;17.50;;
7753;SDS011;3921;42.266;23.122;2022-11-14T09:09:18;30.47;;;18.43;;
7753;SDS011;3921;42.266;23.122;2022-11-14T09:11:45;27.97;;;17.13;;
7753;SDS011;3921;42.266;23.122;2022-11-14T09:14:14;34.47;;;19.37;;
7753;SDS011;3921;42.266;23.122;2022-11-14T09:16:41;29.00;;;18.23;;
7753;SDS011;3921;42.266;23.122;2022-11-14T09:19:11;34.37;;;19.13;;
7753;SDS011;3921;42.266;23.122;2022-11-14T09:21:38;25.03;;;17.30;;
7753;SDS011;3921;42.266;23.122;2022-11-14T09:24:05;29.43;;;18.07;;
7753;SDS011;3921;42.266;23.122;2022-11-14T09:26:33;32.83;;;20.23;;
7753;SDS011;3921;42.266;23.122;2022-11-14T09:29:00;32.17;;;19.77;;
7753;SDS011;3921;42.266;23.122;2022-11-14T09:31:28;40.33;;;24.23;;
7753;SDS011;3921;42.266;23.122;2022-11-14T09:33:55;37.90;;;24.67;;
7753;SDS011;3921;42.266;23.122;2022-11-14T09:36:24;36.37;;;22.93;;
7753;SDS011;3921;42.266;23.122;2022-11-14T09:38:51;33.17;;;20.93;;
7753;SDS011;3921;42.266;23.122;2022-11-14T09:41:21;32.00;;;20.07;;
7753;SDS011;3921;42.266;23.122;2022-11-14T09:44:01;30.97;;;19.37;;
7753;SDS011;3921;42.266;23.122;2022-11-14T09:46:40;31.50;;;18.53;;
7753;SDS011;3921;42.266;23.122;2022-11-14T09:49:14;26.97;;;17.33;;
7753;SDS011;3921;42.266;23.122;2022-11-14T09:51:51;29.80;;;16.53;;
7753;SDS011;3921;42.266;23.122;2022-11-14T09:54:24;36.63;;;19.60;;
7753;SDS011;3921;42.266;23.122;2022-11-14T09:56:53;30.17;;;16.87;;
7753;SDS011;3921;42.266;23.122;2022-11-14T09:59:20;27.13;;;17.30;;
7753;SDS011;3921;42.266;23.122;2022-11-14T10:01:50;27.30;;;16.70;;
7753;SDS011;3921;42.266;23.122;2022-11-14T10:04:24;27.63;;;16.53;;
7753;SDS011;3921;42.266;23.122;2022-11-14T10:07:01;27.70;;;15.47;;
7753;SDS011;3921;42.266;23.122;2022-11-14T10:09:43;25.23;;;15.70;;
7753;SDS011;3921;42.266;23.122;2022-11-14T10:12:20;24.93;;;15.53;;
7753;SDS011;3921;42.266;23.122;2022-11-14T10:14:58;27.63;;;16.03;;
7753;SDS011;3921;42.266;23.122;2022-11-14T10:17:41;31.20;;;18.33;;
7753;SDS011;3921;42.266;23.122;2022-11-14T10:20:19;33.93;;;18.40;;
7753;SDS011;3921;42.266;23.122;2022-11-14T10:22:58;28.50;;;17.00;;
7753;SDS011;3921;42.266;23.122;2022-11-14T10:25:39;29.83;;;17.40;;
7753;SDS011;3921;42.266;23.122;2022-11-14T10:28:19;28.10;;;15.77;;
7753;SDS011;3921;42.266;23.122;2022-11-14T10:31:05;25.70;;;15.43;;
7753;SDS011;3921;42.266;23.122;2022-11-14T10:36:38;30.30;;;15.33;;
7753;SDS011;3921;42.266;23.122;2022-11-14T10:39:15;27.97;;;14.10;;
7753;SDS011;3921;42.266;23.122;2022-11-14T10:41:52;25.67;;;13.97;;
7753;SDS011;3921;42.266;23.122;2022-11-14T10:44:28;28.23;;;15.13;;
7753;SDS011;3921;42.266;23.122;2022-11-14T10:47:02;25.97;;;13.30;;
7753;SDS011;3921;42.266;23.122;2022-11-14T10:49:40;23.60;;;13.50;;
7753;SDS011;3921;42.266;23.122;2022-11-14T10:52:18;25.23;;;14.27;;
7753;SDS011;3921;42.266;23.122;2022-11-14T10:57:38;25.27;;;13.90;;
7753;SDS011;3921;42.266;23.122;2022-11-14T11:00:13;24.03;;;13.93;;
7753;SDS011;3921;42.266;23.122;2022-11-14T11:02:46;24.63;;;14.60;;
7753;SDS011;3921;42.266;23.122;2022-11-14T11:05:17;19.83;;;13.43;;
7753;SDS011;3921;42.266;23.122;2022-11-14T11:08:11;24.70;;;13.67;;
7753;SDS011;3921;42.266;23.122;2022-11-14T11:10:57;23.93;;;15.07;;
7753;SDS011;3921;42.266;23.122;2022-11-14T11:13:47;25.77;;;13.63;;
7753;SDS011;3921;42.266;23.122;2022-11-14T11:16:21;29.33;;;15.63;;
7753;SDS011;3921;42.266;23.122;2022-11-14T11:18:50;28.47;;;14.70;;
7753;SDS011;3921;42.266;23.122;2022-11-14T11:21:19;28.33;;;15.10;;
7753;SDS011;3921;42.266;23.122;2022-11-14T11:23:47;27.60;;;15.27;;
7753;SDS011;3921;42.266;23.122;2022-11-14T11:26:22;31.03;;;17.17;;
7753;SDS011;3921;42.266;23.122;2022-11-14T11:31:48;29.93;;;15.97;;
7753;SDS011;3921;42.266;23.122;2022-11-14T11:34:23;38.27;;;16.63;;
7753;SDS011;3921;42.266;23.122;2022-11-14T11:36:54;26.80;;;15.37;;
7753;SDS011;3921;42.266;23.122;2022-11-14T11:39:27;26.43;;;16.23;;
7753;SDS011;3921;42.266;23.122;2022-11-14T11:42:00;26.70;;;16.50;;
7753;SDS011;3921;42.266;23.122;2022-11-14T11:44:45;28.70;;;15.90;;
7753;SDS011;3921;42.266;23.122;2022-11-14T11:47:16;23.70;;;14.63;;
7753;SDS011;3921;42.266;23.122;2022-11-14T11:49:45;23.80;;;13.93;;
7753;SDS011;3921;42.266;23.122;2022-11-14T11:52:16;25.00;;;15.13;;
7753;SDS011;3921;42.266;23.122;2022-11-14T11:54:54;27.27;;;14.87;;
7753;SDS011;3921;42.266;23.122;2022-11-14T11:57:29;25.53;;;14.53;;
7753;SDS011;3921;42.266;23.122;2022-11-14T12:00:02;25.03;;;14.10;;
7753;SDS011;3921;42.266;23.122;2022-11-14T12:02:32;23.30;;;13.43;;
7753;SDS011;3921;42.266;23.122;2022-11-14T12:05:06;23.47;;;13.83;;
7753;SDS011;3921;42.266;23.122;2022-11-14T12:07:42;19.90;;;13.63;;
7753;SDS011;3921;42.266;23.122;2022-11-14T12:10:21;24.50;;;14.90;;
7753;SDS011;3921;42.266;23.122;2022-11-14T12:13:01;25.93;;;15.07;;
7753;SDS011;3921;42.266;23.122;2022-11-14T12:16:22;24.53;;;14.77;;
7753;SDS011;3921;42.266;23.122;2022-11-14T12:22:11;24.87;;;14.97;;
7753;SDS011;3921;42.266;23.122;2022-11-14T12:25:02;26.57;;;15.07;;
7753;SDS011;3921;42.266;23.122;2022-11-14T12:27:46;28.27;;;15.53;;
7753;SDS011;3921;42.266;23.122;2022-11-14T12:30:25;23.30;;;14.37;;
7753;SDS011;3921;42.266;23.122;2022-11-14T12:32:54;26.17;;;14.77;;
7753;SDS011;3921;42.266;23.122;2022-11-14T12:35:25;24.40;;;14.67;;
7753;SDS011;3921;42.266;23.122;2022-11-14T12:37:56;25.37;;;15.90;;
7753;SDS011;3921;42.266;23.122;2022-11-14T12:40:27;28.17;;;15.80;;
7753;SDS011;3921;42.266;23.122;2022-11-14T12:43:22;27.30;;;15.43;;
7753;SDS011;3921;42.266;23.122;2022-11-14T12:45:55;26.03;;;15.33;;
7753;SDS011;3921;42.266;23.122;2022-11-14T12:48:34;20.13;;;13.50;;
7753;SDS011;3921;42.266;23.122;2022-11-14T12:51:05;25.47;;;16.03;;
7753;SDS011;3921;42.266;23.122;2022-11-14T12:53:51;27.77;;;15.83;;
7753;SDS011;3921;42.266;23.122;2022-11-14T13:02:27;27.43;;;15.30;;
7753;SDS011;3921;42.266;23.122;2022-11-14T13:05:20;25.47;;;13.33;;
7753;SDS011;3921;42.266;23.122;2022-11-14T13:07:56;27.07;;;13.50;;
7753;SDS011;3921;42.266;23.122;2022-11-14T13:10:37;26.87;;;14.07;;
7753;SDS011;3921;42.266;23.122;2022-11-14T13:13:08;23.10;;;12.93;;
7753;SDS011;3921;42.266;23.122;2022-11-14T13:15:54;22.47;;;14.10;;
7753;SDS011;3921;42.266;23.122;2022-11-14T13:18:49;25.37;;;14.43;;
7753;SDS011;3921;42.266;23.122;2022-11-14T13:21:36;25.67;;;13.73;;
7753;SDS011;3921;42.266;23.122;2022-11-14T13:24:12;20.97;;;14.20;;
7753;SDS011;3921;42.266;23.122;2022-11-14T13:26:42;23.93;;;14.57;;
7753;SDS011;3921;42.266;23.122;2022-11-14T13:35:37;21.20;;;13.03;;
7753;SDS011;3921;42.266;23.122;2022-11-14T13:47:27;21.20;;;14.40;;
7753;SDS011;3921;42.266;23.122;2022-11-14T13:50:09;23.77;;;13.10;;
7753;SDS011;3921;42.266;23.122;2022-11-14T13:52:49;19.53;;;12.83;;
7753;SDS011;3921;42.266;23.122;2022-11-14T13:55:18;20.27;;;13.63;;
7753;SDS011;3921;42.266;23.122;2022-11-14T13:57:57;22.87;;;13.20;;
7753;SDS011;3921;42.266;23.122;2022-11-14T14:00:45;21.10;;;13.23;;
7753;SDS011;3921;42.266;23.122;2022-11-14T14:03:35;27.00;;;14.53;;
7753;SDS011;3921;42.266;23.122;2022-11-14T14:06:26;24.37;;;14.43;;
7753;SDS011;3921;42.266;23.122;2022-11-14T14:12:11;23.53;;;12.20;;
7753;SDS011;3921;42.266;23.122;2022-11-14T14:14:56;19.13;;;11.10;;
7753;SDS011;3921;42.266;23.122;2022-11-14T14:17:43;18.73;;;11.60;;
7753;SDS011;3921;42.266;23.122;2022-11-14T14:20:35;18.97;;;11.13;;
7753;SDS011;3921;42.266;23.122;2022-11-14T14:23:14;19.17;;;11.57;;
7753;SDS011;3921;42.266;23.122;2022-11-14T14:25:53;16.40;;;11.00;;
7753;SDS011;3921;42.266;23.122;2022-11-14T14:28:32;19.30;;;11.20;;
7753;SDS011;3921;42.266;23.122;2022-11-14T14:31:10;19.10;;;11.30;;
7753;SDS011;3921;42.266;23.122;2022-11-14T14:33:41;19.60;;;11.80;;
7753;SDS011;3921;42.266;23.122;2022-11-14T14:36:16;16.87;;;11.40;;
7753;SDS011;3921;42.266;23.122;2022-11-14T14:38:47;19.90;;;13.13;;
7753;SDS011;3921;42.266;23.122;2022-11-14T14:41:25;20.10;;;12.43;;
7753;SDS011;3921;42.266;23.122;2022-11-14T14:43:57;19.60;;;13.47;;
7753;SDS011;3921;42.266;23.122;2022-11-14T14:46:26;22.43;;;15.33;;
7753;SDS011;3921;42.266;23.122;2022-11-14T14:48:54;25.10;;;15.53;;
7753;SDS011;3921;42.266;23.122;2022-11-14T14:51:29;28.87;;;15.97;;
7753;SDS011;3921;42.266;23.122;2022-11-14T14:53:58;26.80;;;16.20;;
7753;SDS011;3921;42.266;23.122;2022-11-14T14:56:26;30.77;;;16.23;;
7753;SDS011;3921;42.266;23.122;2022-11-14T14:58:54;26.17;;;15.87;;
7753;SDS011;3921;42.266;23.122;2022-11-14T15:01:22;28.53;;;16.80;;
7753;SDS011;3921;42.266;23.122;2022-11-14T15:04:01;30.63;;;16.63;;
7753;SDS011;3921;42.266;23.122;2022-11-14T15:06:31;28.33;;;16.73;;
7753;SDS011;3921;42.266;23.122;2022-11-14T15:08:59;29.50;;;16.77;;
7753;SDS011;3921;42.266;23.122;2022-11-14T15:11:34;32.73;;;17.70;;
7753;SDS011;3921;42.266;23.122;2022-11-14T15:14:05;39.07;;;20.27;;
7753;SDS011;3921;42.266;23.122;2022-11-14T15:16:36;40.80;;;22.13;;
7753;SDS011;3921;42.266;23.122;2022-11-14T15:19:03;40.23;;;20.37;;
7753;SDS011;3921;42.266;23.122;2022-11-14T15:21:31;43.50;;;22.43;;
7753;SDS011;3921;42.266;23.122;2022-11-14T15:23:58;40.10;;;23.30;;
7753;SDS011;3921;42.266;23.122;2022-11-14T15:26:32;46.93;;;24.00;;
7753;SDS011;3921;42.266;23.122;2022-11-14T15:29:14;50.10;;;26.77;;
7753;SDS011;3921;42.266;23.122;2022-11-14T15:31:55;53.77;;;28.97;;
7753;SDS011;3921;42.266;23.122;2022-11-14T15:34:29;67.13;;;31.83;;
7753;SDS011;3921;42.266;23.122;2022-11-14T15:39:50;66.03;;;37.70;;
7753;SDS011;3921;42.266;23.122;2022-11-14T15:42:26;78.10;;;40.93;;
7753;SDS011;3921;42.266;23.122;2022-11-14T15:45:19;97.67;;;49.43;;
7753;SDS011;3921;42.266;23.122;2022-11-14T15:47:48;119.10;;;54.77;;